sensor_id;sensor_type;location;lat;lon;timestamp;pressure;altitude;pressure_sealevel;temperature;humidity
64544;BME280;50936;51.660;5.616;2023-05-17T00:00:31;102089.09;;;7.74;100.00
64544;BME280;50936;51.660;5.616;2023-05-17T00:02:58;102101.63;;;7.75;100.00
64544;BME280;50936;51.660;5.616;2023-05-17T00:05:25;102102.59;;;7.72;100.00
64544;BME280;50936;51.660;5.616;2023-05-17T00:07:52;102103.56;;;7.71;100.00
64544;BME280;50936;51.660;5.616;2023-05-17T00:10:19;102104.47;;;7.70;100.00
64544;BME280;50936;51.660;5.616;2023-05-17T00:12:46;102105.50;;;7.68;100.00
64544;BME280;50936;51.660;5.616;2023-05-17T00:15:13;102105.53;;;7.66;100.00
64544;BME280;50936;51.660;5.616;2023-05-17T00:17:40;102101.09;;;7.65;100.00
64544;BME280;50936;51.660;5.616;2023-05-17T00:20:07;102110.09;;;7.64;100.00
64544;BME280;50936;51.660;5.616;2023-05-17T00:22:35;102105.63;;;7.63;100.00
64544;BME280;50936;51.660;5.616;2023-05-17T00:25:02;102101.31;;;7.59;100.00
64544;BME280;50936;51.660;5.616;2023-05-17T00:27:29;102105.88;;;7.57;100.00
64544;BME280;50936;51.660;5.616;2023-05-17T00:29:56;102095.22;;;7.54;100.00
64544;BME280;50936;51.660;5.616;2023-05-17T00:32:23;102102.31;;;7.57;100.00
64544;BME280;50936;51.660;5.616;2023-05-17T00:34:50;102100.75;;;7.51;100.00
64544;BME280;50936;51.660;5.616;2023-05-17T00:37:17;102100.91;;;7.46;100.00
64544;BME280;50936;51.660;5.616;2023-05-17T00:39:44;102100.03;;;7.46;100.00
64544;BME280;50936;51.660;5.616;2023-05-17T00:42:11;102103.53;;;7.48;100.00
64544;BME280;50936;51.660;5.616;2023-05-17T00:44:38;102098.16;;;7.48;100.00
64544;BME280;50936;51.660;5.616;2023-05-17T00:47:06;102090.13;;;7.46;100.00
64544;BME280;50936;51.660;5.616;2023-05-17T00:49:33;102085.75;;;7.44;100.00
64544;BME280;50936;51.660;5.616;2023-05-17T00:52:00;102087.75;;;7.39;100.00
64544;BME280;50936;51.660;5.616;2023-05-17T00:54:27;102093.31;;;7.32;100.00
64544;BME280;50936;51.660;5.616;2023-05-17T00:56:58;102095.19;;;7.30;100.00
64544;BME280;50936;51.660;5.616;2023-05-17T00:59:27;102089.94;;;7.27;100.00
64544;BME280;50936;51.660;5.616;2023-05-17T01:01:55;102093.53;;;7.26;100.00
64544;BME280;50936;51.660;5.616;2023-05-17T01:04:23;102099.03;;;7.23;100.00
64544;BME280;50936;51.660;5.616;2023-05-17T01:06:50;102091.91;;;7.22;100.00
64544;BME280;50936;51.660;5.616;2023-05-17T01:09:17;102088.41;;;7.20;100.00
64544;BME280;50936;51.660;5.616;2023-05-17T01:11:55;102093.78;;;7.20;100.00
64544;BME280;50936;51.660;5.616;2023-05-17T01:14:40;102104.63;;;7.17;100.00
64544;BME280;50936;51.660;5.616;2023-05-17T01:17:37;102107.34;;;7.16;100.00
64544;BME280;50936;51.660;5.616;2023-05-17T01:20:35;102109.16;;;7.15;100.00
64544;BME280;50936;51.660;5.616;2023-05-17T01:23:50;102104.63;;;7.17;100.00
64544;BME280;50936;51.660;5.616;2023-05-17T01:26:18;102101.13;;;7.15;100.00
64544;BME280;50936;51.660;5.616;2023-05-17T01:28:52;102101.13;;;7.15;100.00
64544;BME280;50936;51.660;5.616;2023-05-17T01:31:21;102101.13;;;7.15;100.00
64544;BME280;50936;51.660;5.616;2023-05-17T01:33:49;102099.25;;;7.17;100.00
64544;BME280;50936;51.660;5.616;2023-05-17T01:36:16;102092.94;;;7.18;100.00
64544;BME280;50936;51.660;5.616;2023-05-17T01:38:43;102108.22;;;7.16;100.00
64544;BME280;50936;51.660;5.616;2023-05-17T01:41:17;102104.72;;;7.14;100.00
64544;BME280;50936;51.660;5.616;2023-05-17T01:44:17;102100.34;;;7.11;100.00
64544;BME280;50936;51.660;5.616;2023-05-17T01:47:12;102092.09;;;7.16;100.00
64544;BME280;50936;51.660;5.616;2023-05-17T01:49:58;102083.13;;;7.17;100.00
64544;BME280;50936;51.660;5.616;2023-05-17T01:52:54;102092.09;;;7.16;100.00
64544;BME280;50936;51.660;5.616;2023-05-17T01:58:00;102101.13;;;7.15;100.00
64544;BME280;50936;51.660;5.616;2023-05-17T02:00:32;102097.59;;;7.13;100.00
64544;BME280;50936;51.660;5.616;2023-05-17T02:02:59;102108.34;;;7.13;100.00
64544;BME280;50936;51.660;5.616;2023-05-17T02:05:26;102085.00;;;7.15;100.00
64544;BME280;50936;51.660;5.616;2023-05-17T02:07:53;102096.66;;;7.14;100.00
64544;BME280;50936;51.660;5.616;2023-05-17T02:10:21;102099.47;;;7.11;100.00
64544;BME280;50936;51.660;5.616;2023-05-17T02:12:47;102097.59;;;7.13;100.00
64544;BME280;50936;51.660;5.616;2023-05-17T02:15:14;102093.09;;;7.13;100.00
64544;BME280;50936;51.660;5.616;2023-05-17T02:17:42;102095.84;;;7.12;100.00
64544;BME280;50936;51.660;5.616;2023-05-17T02:20:09;102097.59;;;7.13;100.00
64544;BME280;50936;51.660;5.616;2023-05-17T02:22:37;102096.50;;;7.19;100.00
64544;BME280;50936;51.660;5.616;2023-05-17T02:25:05;102100.88;;;7.21;100.00
64544;BME280;50936;51.660;5.616;2023-05-17T02:27:33;102093.53;;;7.26;100.00
64544;BME280;50936;51.660;5.616;2023-05-17T02:30:00;102094.25;;;7.31;100.00
64544;BME280;50936;51.660;5.616;2023-05-17T02:32:29;102101.31;;;7.34;100.00
64544;BME280;50936;51.660;5.616;2023-05-17T02:34:57;102104.72;;;7.39;100.00
64544;BME280;50936;51.660;5.616;2023-05-17T02:37:24;102100.84;;;7.48;100.00
64544;BME280;50936;51.660;5.616;2023-05-17T02:39:51;102108.81;;;7.51;100.00
64544;BME280;50936;51.660;5.616;2023-05-17T02:42:18;102110.44;;;7.55;100.00
64544;BME280;50936;51.660;5.616;2023-05-17T02:44:46;102106.69;;;7.59;100.00
64544;BME280;50936;51.660;5.616;2023-05-17T02:47:18;102115.38;;;7.67;100.00
64544;BME280;50936;51.660;5.616;2023-05-17T02:49:47;102104.47;;;7.70;100.00
64544;BME280;50936;51.660;5.616;2023-05-17T02:52:14;102116.00;;;7.74;100.00
64544;BME280;50936;51.660;5.616;2023-05-17T02:54:42;102114.91;;;7.80;100.00
64544;BME280;50936;51.660;5.616;2023-05-17T02:57:09;102116.53;;;7.84;100.00
64544;BME280;50936;51.660;5.616;2023-05-17T02:59:36;102113.69;;;7.88;100.00
64544;BME280;50936;51.660;5.616;2023-05-17T03:02:04;102121.69;;;7.90;100.00
64544;BME280;50936;51.660;5.616;2023-05-17T03:04:32;102126.22;;;7.89;100.00
64544;BME280;50936;51.660;5.616;2023-05-17T03:06:59;102127.06;;;7.90;100.00
64544;BME280;50936;51.660;5.616;2023-05-17T03:09:26;102125.91;;;7.97;100.00
64544;BME280;50936;51.660;5.616;2023-05-17T03:11:56;102124.97;;;7.98;100.00
64544;BME280;50936;51.660;5.616;2023-05-17T03:14:26;102128.47;;;8.00;100.00
64544;BME280;50936;51.660;5.616;2023-05-17T03:16:53;102124.75;;;8.04;100.00
64544;BME280;50936;51.660;5.616;2023-05-17T03:19:21;102140.88;;;8.04;100.00
64544;BME280;50936;51.660;5.616;2023-05-17T03:21:50;102139.00;;;8.06;100.00
64544;BME280;50936;51.660;5.616;2023-05-17T03:24:17;102137.94;;;8.10;100.00
64544;BME280;50936;51.660;5.616;2023-05-17T03:26:44;102143.28;;;8.12;100.00
64544;BME280;50936;51.660;5.616;2023-05-17T03:29:12;102146.88;;;8.11;100.00
64544;BME280;50936;51.660;5.616;2023-05-17T03:31:41;102146.13;;;8.07;100.00
64544;BME280;50936;51.660;5.616;2023-05-17T03:34:08;102149.00;;;8.03;100.00
64544;BME280;50936;51.660;5.616;2023-05-17T03:36:37;102153.72;;;7.96;100.00
64544;BME280;50936;51.660;5.616;2023-05-17T03:39:07;102150.34;;;7.91;100.00
64544;BME280;50936;51.660;5.616;2023-05-17T03:41:37;102157.72;;;7.86;100.00
64544;BME280;50936;51.660;5.616;2023-05-17T03:44:04;102155.28;;;7.78;100.00
64544;BME280;50936;51.660;5.616;2023-05-17T03:46:32;102150.91;;;7.76;100.00
64544;BME280;50936;51.660;5.616;2023-05-17T03:48:59;102155.53;;;7.72;100.00
64544;BME280;50936;51.660;5.616;2023-05-17T03:51:27;102160.13;;;7.68;100.00
64544;BME280;50936;51.660;5.616;2023-05-17T03:53:58;102162.09;;;7.63;100.00
64544;BME280;50936;51.660;5.616;2023-05-17T03:56:28;102163.97;;;7.61;100.00
64544;BME280;50936;51.660;5.616;2023-05-17T03:58:54;102163.09;;;7.61;100.00
64544;BME280;50936;51.660;5.616;2023-05-17T04:01:22;102170.34;;;7.59;100.00
64544;BME280;50936;51.660;5.616;2023-05-17T04:03:49;102173.09;;;7.57;100.00
64544;BME280;50936;51.660;5.616;2023-05-17T04:06:19;102173.97;;;7.58;100.00
64544;BME280;50936;51.660;5.616;2023-05-17T04:08:45;102176.59;;;7.59;100.00
64544;BME280;50936;51.660;5.616;2023-05-17T04:11:13;102164.06;;;7.58;100.00
64544;BME280;50936;51.660;5.616;2023-05-17T04:13:41;102174.84;;;7.58;100.00
64544;BME280;50936;51.660;5.616;2023-05-17T04:16:09;102174.97;;;7.55;100.00
64544;BME280;50936;51.660;5.616;2023-05-17T04:18:39;102167.78;;;7.56;100.00
64544;BME280;50936;51.660;5.616;2023-05-17T04:21:07;102173.19;;;7.54;100.00
64544;BME280;50936;51.660;5.616;2023-05-17T04:23:35;102180.44;;;7.52;100.00
64544;BME280;50936;51.660;5.616;2023-05-17T04:26:04;102179.41;;;7.56;100.00
64544;BME280;50936;51.660;5.616;2023-05-17T04:28:34;102188.28;;;7.58;100.00
64544;BME280;50936;51.660;5.616;2023-05-17T04:31:06;102197.13;;;7.62;100.00
64544;BME280;50936;51.660;5.616;2023-05-17T04:33:36;102201.44;;;7.67;100.00
64544;BME280;50936;51.660;5.616;2023-05-17T04:36:06;102195.59;;;7.80;100.00
64544;BME280;50936;51.660;5.616;2023-05-17T04:38:34;102199.38;;;7.99;100.00
64544;BME280;50936;51.660;5.616;2023-05-17T04:41:05;102207.50;;;8.46;100.00
64544;BME280;50936;51.660;5.616;2023-05-17T04:43:35;102208.13;;;8.97;100.00
64544;BME280;50936;51.660;5.616;2023-05-17T04:46:05;102222.44;;;9.21;100.00
64544;BME280;50936;51.660;5.616;2023-05-17T04:48:33;102218.78;;;9.22;100.00
64544;BME280;50936;51.660;5.616;2023-05-17T04:51:01;102225.94;;;9.23;100.00
64544;BME280;50936;51.660;5.616;2023-05-17T04:53:32;102234.59;;;9.32;100.00
64544;BME280;50936;51.660;5.616;2023-05-17T04:56:05;102231.00;;;9.31;100.00
64544;BME280;50936;51.660;5.616;2023-05-17T04:58:32;102229.47;;;9.25;100.00
64544;BME280;50936;51.660;5.616;2023-05-17T05:01:01;102235.09;;;9.19;100.00
64544;BME280;50936;51.660;5.616;2023-05-17T05:03:28;102233.34;;;9.18;100.00
64544;BME280;50936;51.660;5.616;2023-05-17T05:05:55;102235.94;;;9.21;100.00
64544;BME280;50936;51.660;5.616;2023-05-17T05:08:23;102246.72;;;9.21;100.00
64544;BME280;50936;51.660;5.616;2023-05-17T05:10:51;102237.97;;;9.37;100.00
64544;BME280;50936;51.660;5.616;2023-05-17T05:13:21;102245.47;;;9.51;100.00
64544;BME280;50936;51.660;5.616;2023-05-17T05:15:50;102249.47;;;9.62;100.00
64544;BME280;50936;51.660;5.616;2023-05-17T05:18:16;102252.31;;;9.80;100.00
64544;BME280;50936;51.660;5.616;2023-05-17T05:20:45;102255.81;;;10.02;100.00
64544;BME280;50936;51.660;5.616;2023-05-17T05:23:14;102252.78;;;10.29;100.00
64544;BME280;50936;51.660;5.616;2023-05-17T05:25:43;102261.28;;;10.61;100.00
64544;BME280;50936;51.660;5.616;2023-05-17T05:28:10;102276.47;;;10.83;100.00
64544;BME280;50936;51.660;5.616;2023-05-17T05:30:39;102271.06;;;10.83;100.00
64544;BME280;50936;51.660;5.616;2023-05-17T05:33:07;102273.13;;;10.77;100.00
64544;BME280;50936;51.660;5.616;2023-05-17T05:35:37;102274.50;;;10.67;100.00
64544;BME280;50936;51.660;5.616;2023-05-17T05:38:04;102269.66;;;10.55;100.00
64544;BME280;50936;51.660;5.616;2023-05-17T05:40:31;102276.31;;;10.48;100.00
64544;BME280;50936;51.660;5.616;2023-05-17T05:42:58;102274.84;;;10.40;100.00
64544;BME280;50936;51.660;5.616;2023-05-17T05:45:25;102271.31;;;10.38;100.00
64544;BME280;50936;51.660;5.616;2023-05-17T05:47:56;102279.94;;;10.47;100.00
64544;BME280;50936;51.660;5.616;2023-05-17T05:50:23;102281.72;;;10.48;100.00
64544;BME280;50936;51.660;5.616;2023-05-17T05:52:54;102289.00;;;10.46;100.00
64544;BME280;50936;51.660;5.616;2023-05-17T05:55:40;102288.13;;;10.45;100.00
64544;BME280;50936;51.660;5.616;2023-05-17T05:58:08;102283.59;;;10.46;100.00
64544;BME280;50936;51.660;5.616;2023-05-17T06:00:36;102295.88;;;10.53;100.00
64544;BME280;50936;51.660;5.616;2023-05-17T06:03:04;102298.06;;;10.64;100.00
64544;BME280;50936;51.660;5.616;2023-05-17T06:05:31;102300.28;;;10.74;100.00
64544;BME280;50936;51.660;5.616;2023-05-17T06:07:59;102300.63;;;10.86;100.00
64544;BME280;50936;51.660;5.616;2023-05-17T06:10:26;102307.38;;;10.96;100.00
64544;BME280;50936;51.660;5.616;2023-05-17T06:12:54;102305.97;;;11.06;100.00
64544;BME280;50936;51.660;5.616;2023-05-17T06:15:21;102318.09;;;11.16;100.00
64544;BME280;50936;51.660;5.616;2023-05-17T06:17:48;102317.50;;;11.29;100.00
64544;BME280;50936;51.660;5.616;2023-05-17T06:20:15;102324.50;;;11.33;100.00
64544;BME280;50936;51.660;5.616;2023-05-17T06:22:42;102321.50;;;11.39;100.00
64544;BME280;50936;51.660;5.616;2023-05-17T06:25:09;102328.00;;;11.54;100.00
64544;BME280;50936;51.660;5.616;2023-05-17T06:27:36;102331.91;;;11.66;100.00
64544;BME280;50936;51.660;5.616;2023-05-17T06:30:06;102336.38;;;11.84;100.00
64544;BME280;50936;51.660;5.616;2023-05-17T06:32:34;102344.06;;;11.93;100.00
64544;BME280;50936;51.660;5.616;2023-05-17T06:35:01;102342.22;;;11.94;100.00
64544;BME280;50936;51.660;5.616;2023-05-17T06:37:29;102340.16;;;11.99;100.00
64544;BME280;50936;51.660;5.616;2023-05-17T06:40:03;102341.75;;;12.03;100.00
64544;BME280;50936;51.660;5.616;2023-05-17T06:42:42;102343.53;;;12.04;100.00
64544;BME280;50936;51.660;5.616;2023-05-17T06:45:09;102342.16;;;12.13;100.00
64544;BME280;50936;51.660;5.616;2023-05-17T06:47:37;102340.56;;;12.26;100.00
64544;BME280;50936;51.660;5.616;2023-05-17T06:50:05;102333.50;;;12.24;100.00
64544;BME280;50936;51.660;5.616;2023-05-17T06:52:34;102337.28;;;12.20;100.00
64544;BME280;50936;51.660;5.616;2023-05-17T06:55:01;102347.75;;;12.10;100.00
64544;BME280;50936;51.660;5.616;2023-05-17T06:57:28;102343.84;;;11.98;100.00
64544;BME280;50936;51.660;5.616;2023-05-17T06:59:55;102343.38;;;11.88;100.00
64544;BME280;50936;51.660;5.616;2023-05-17T07:02:22;102349.25;;;11.98;100.00
64544;BME280;50936;51.660;5.616;2023-05-17T07:04:49;102337.38;;;12.36;100.00
64544;BME280;50936;51.660;5.616;2023-05-17T07:07:17;102346.44;;;12.52;100.00
64544;BME280;50936;51.660;5.616;2023-05-17T07:09:44;102344.06;;;12.46;100.00
64544;BME280;50936;51.660;5.616;2023-05-17T07:12:11;102343.56;;;12.38;96.95
64544;BME280;50936;51.660;5.616;2023-05-17T07:14:38;102352.81;;;12.33;93.75
64544;BME280;50936;51.660;5.616;2023-05-17T07:17:05;102344.06;;;12.28;91.57
64544;BME280;50936;51.660;5.616;2023-05-17T07:19:32;102346.38;;;12.19;92.27
64544;BME280;50936;51.660;5.616;2023-05-17T07:21:59;102357.13;;;13.04;93.86
64544;BME280;50936;51.660;5.616;2023-05-17T07:24:26;102361.59;;;13.85;87.43
64544;BME280;50936;51.660;5.616;2023-05-17T07:26:53;102364.53;;;14.71;83.29
64544;BME280;50936;51.660;5.616;2023-05-17T07:29:20;102361.50;;;15.05;79.75
64544;BME280;50936;51.660;5.616;2023-05-17T07:31:46;102366.28;;;15.01;77.21
64544;BME280;50936;51.660;5.616;2023-05-17T07:34:13;102365.19;;;15.04;80.21
64544;BME280;50936;51.660;5.616;2023-05-17T07:36:40;102375.69;;;15.10;79.48
64544;BME280;50936;51.660;5.616;2023-05-17T07:39:07;102379.00;;;14.86;79.97
64544;BME280;50936;51.660;5.616;2023-05-17T07:41:35;102381.53;;;14.75;80.03
64544;BME280;50936;51.660;5.616;2023-05-17T07:44:02;102376.97;;;14.45;82.10
64544;BME280;50936;51.660;5.616;2023-05-17T07:46:29;102376.72;;;14.19;82.37
64544;BME280;50936;51.660;5.616;2023-05-17T07:48:56;102375.31;;;13.98;81.49
64544;BME280;50936;51.660;5.616;2023-05-17T07:51:24;102382.34;;;13.86;79.87
64544;BME280;50936;51.660;5.616;2023-05-17T07:53:51;102382.69;;;14.85;81.43
64544;BME280;50936;51.660;5.616;2023-05-17T07:56:18;102388.28;;;15.39;81.37
64544;BME280;50936;51.660;5.616;2023-05-17T07:58:46;102391.50;;;15.32;76.76
64544;BME280;50936;51.660;5.616;2023-05-17T08:01:13;102381.91;;;14.97;77.49
64544;BME280;50936;51.660;5.616;2023-05-17T08:03:40;102389.97;;;14.70;78.66
64544;BME280;50936;51.660;5.616;2023-05-17T08:06:17;102395.63;;;15.66;78.87
64544;BME280;50936;51.660;5.616;2023-05-17T08:08:44;102388.03;;;16.77;71.84
64544;BME280;50936;51.660;5.616;2023-05-17T08:11:12;102393.16;;;17.57;68.90
64544;BME280;50936;51.660;5.616;2023-05-17T08:13:39;102397.03;;;17.42;69.04
64544;BME280;50936;51.660;5.616;2023-05-17T08:16:07;102400.72;;;17.04;68.29
64544;BME280;50936;51.660;5.616;2023-05-17T08:18:41;102396.97;;;16.53;67.85
64544;BME280;50936;51.660;5.616;2023-05-17T08:21:09;102405.63;;;16.20;68.82
64544;BME280;50936;51.660;5.616;2023-05-17T08:23:37;102394.25;;;15.73;67.54
64544;BME280;50936;51.660;5.616;2023-05-17T08:26:05;102397.81;;;15.32;68.13
64544;BME280;50936;51.660;5.616;2023-05-17T08:28:33;102394.94;;;14.92;69.84
64544;BME280;50936;51.660;5.616;2023-05-17T08:31:00;102401.03;;;14.81;70.05
64544;BME280;50936;51.660;5.616;2023-05-17T08:33:29;102399.19;;;15.39;72.62
64544;BME280;50936;51.660;5.616;2023-05-17T08:35:56;102404.22;;;16.14;72.03
64544;BME280;50936;51.660;5.616;2023-05-17T08:38:28;102395.44;;;16.49;69.21
64544;BME280;50936;51.660;5.616;2023-05-17T08:40:55;102399.16;;;16.61;68.04
64544;BME280;50936;51.660;5.616;2023-05-17T08:43:23;102409.84;;;16.64;65.53
64544;BME280;50936;51.660;5.616;2023-05-17T08:45:53;102409.22;;;16.99;65.45
64544;BME280;50936;51.660;5.616;2023-05-17T08:48:25;102394.50;;;17.02;60.28
64544;BME280;50936;51.660;5.616;2023-05-17T08:50:54;102398.84;;;17.17;60.76
64544;BME280;50936;51.660;5.616;2023-05-17T08:53:23;102400.44;;;17.32;58.07
64544;BME280;50936;51.660;5.616;2023-05-17T08:55:58;102403.63;;;17.63;55.23
64544;BME280;50936;51.660;5.616;2023-05-17T08:58:35;102406.59;;;17.97;52.42
64544;BME280;50936;51.660;5.616;2023-05-17T09:01:22;102410.94;;;18.35;50.31
64544;BME280;50936;51.660;5.616;2023-05-17T09:03:52;102413.03;;;18.56;49.61
64544;BME280;50936;51.660;5.616;2023-05-17T09:06:21;102419.47;;;18.55;48.18
64544;BME280;50936;51.660;5.616;2023-05-17T09:08:49;102423.16;;;18.42;49.39
64544;BME280;50936;51.660;5.616;2023-05-17T09:11:28;102417.00;;;18.63;49.09
64544;BME280;50936;51.660;5.616;2023-05-17T09:14:01;102419.50;;;18.77;50.67
64544;BME280;50936;51.660;5.616;2023-05-17T09:16:32;102420.31;;;19.02;49.15
64544;BME280;50936;51.660;5.616;2023-05-17T09:19:02;102412.34;;;19.10;47.69
64544;BME280;50936;51.660;5.616;2023-05-17T09:21:32;102413.34;;;19.32;46.97
64544;BME280;50936;51.660;5.616;2023-05-17T09:23:59;102410.38;;;19.23;47.00
64544;BME280;50936;51.660;5.616;2023-05-17T09:26:40;102415.97;;;18.99;46.35
64544;BME280;50936;51.660;5.616;2023-05-17T09:29:13;102413.09;;;18.90;46.19
64544;BME280;50936;51.660;5.616;2023-05-17T09:31:42;102421.16;;;18.80;46.73
64544;BME280;50936;51.660;5.616;2023-05-17T09:34:10;102420.28;;;18.79;46.18
64544;BME280;50936;51.660;5.616;2023-05-17T09:36:41;102407.06;;;18.62;46.04
64544;BME280;50936;51.660;5.616;2023-05-17T09:39:09;102411.41;;;18.64;46.47
64544;BME280;50936;51.660;5.616;2023-05-17T09:41:48;102418.28;;;18.35;45.68
64544;BME280;50936;51.660;5.616;2023-05-17T09:44:16;102408.72;;;17.81;46.51
64544;BME280;50936;51.660;5.616;2023-05-17T09:46:45;102407.19;;;17.40;48.16
64544;BME280;50936;51.660;5.616;2023-05-17T09:49:14;102411.84;;;17.50;47.28
64544;BME280;50936;51.660;5.616;2023-05-17T09:51:44;102417.53;;;17.60;45.59
64544;BME280;50936;51.660;5.616;2023-05-17T09:54:14;102411.88;;;17.75;44.58
64544;BME280;50936;51.660;5.616;2023-05-17T09:56:43;102403.84;;;17.97;43.74
64544;BME280;50936;51.660;5.616;2023-05-17T09:59:15;102398.84;;;18.15;44.51
64544;BME280;50936;51.660;5.616;2023-05-17T10:01:43;102411.34;;;18.42;44.74
64544;BME280;50936;51.660;5.616;2023-05-17T10:04:12;102396.88;;;18.75;44.04
64544;BME280;50936;51.660;5.616;2023-05-17T10:06:41;102404.13;;;18.99;42.89
64544;BME280;50936;51.660;5.616;2023-05-17T10:09:17;102408.31;;;18.69;44.55
64544;BME280;50936;51.660;5.616;2023-05-17T10:11:51;102416.19;;;18.38;44.17
64544;BME280;50936;51.660;5.616;2023-05-17T10:14:31;102416.69;;;18.32;43.16
64544;BME280;50936;51.660;5.616;2023-05-17T10:17:01;102419.47;;;18.55;44.33
64544;BME280;50936;51.660;5.616;2023-05-17T10:19:29;102424.56;;;19.06;44.27
64544;BME280;50936;51.660;5.616;2023-05-17T10:21:57;102421.31;;;19.35;43.02
64544;BME280;50936;51.660;5.616;2023-05-17T10:24:44;102408.84;;;19.53;43.07
64544;BME280;50936;51.660;5.616;2023-05-17T10:27:13;102413.56;;;19.74;42.58
64544;BME280;50936;51.660;5.616;2023-05-17T10:29:42;102413.72;;;20.05;42.61
64544;BME280;50936;51.660;5.616;2023-05-17T10:32:13;102413.59;;;20.27;41.15
64544;BME280;50936;51.660;5.616;2023-05-17T10:34:40;102420.59;;;20.31;40.72
64544;BME280;50936;51.660;5.616;2023-05-17T10:37:07;102412.88;;;20.25;42.06
64544;BME280;50936;51.660;5.616;2023-05-17T10:39:35;102407.78;;;20.21;42.28
64544;BME280;50936;51.660;5.616;2023-05-17T10:42:06;102414.69;;;20.15;41.06
64544;BME280;50936;51.660;5.616;2023-05-17T10:44:41;102414.84;;;20.02;41.86
64544;BME280;50936;51.660;5.616;2023-05-17T10:47:09;102408.19;;;20.16;41.51
64544;BME280;50936;51.660;5.616;2023-05-17T10:49:37;102410.25;;;20.03;41.91
64544;BME280;50936;51.660;5.616;2023-05-17T10:52:12;102406.03;;;19.98;41.66
64544;BME280;50936;51.660;5.616;2023-05-17T10:54:43;102400.06;;;19.93;39.73
64544;BME280;50936;51.660;5.616;2023-05-17T10:57:19;102404.50;;;19.94;40.34
64544;BME280;50936;51.660;5.616;2023-05-17T11:00:06;102402.63;;;20.06;37.95
64544;BME280;50936;51.660;5.616;2023-05-17T11:02:39;102394.03;;;19.99;37.87
64544;BME280;50936;51.660;5.616;2023-05-17T11:05:22;102401.78;;;19.94;39.23
64544;BME280;50936;51.660;5.616;2023-05-17T11:07:51;102392.38;;;19.76;39.33
64544;BME280;50936;51.660;5.616;2023-05-17T11:10:18;102399.97;;;19.61;40.18
64544;BME280;50936;51.660;5.616;2023-05-17T11:12:46;102389.38;;;19.68;38.92
64544;BME280;50936;51.660;5.616;2023-05-17T11:15:24;102393.34;;;19.86;39.70
64544;BME280;50936;51.660;5.616;2023-05-17T11:17:52;102393.34;;;20.18;41.42
64544;BME280;50936;51.660;5.616;2023-05-17T11:23:04;102396.25;;;21.21;38.24
64544;BME280;50936;51.660;5.616;2023-05-17T11:25:35;102402.34;;;21.45;38.02
64544;BME280;50936;51.660;5.616;2023-05-17T11:28:17;102395.91;;;21.85;37.35
64544;BME280;50936;51.660;5.616;2023-05-17T11:30:46;102399.97;;;22.20;35.34
64544;BME280;50936;51.660;5.616;2023-05-17T11:33:36;102399.94;;;22.59;36.21
64544;BME280;50936;51.660;5.616;2023-05-17T11:36:29;102388.94;;;22.59;35.11
64544;BME280;50936;51.660;5.616;2023-05-17T11:39:10;102395.75;;;22.45;33.72
64544;BME280;50936;51.660;5.616;2023-05-17T11:41:47;102399.94;;;22.10;34.13
64544;BME280;50936;51.660;5.616;2023-05-17T11:44:38;102398.50;;;21.97;35.82
64544;BME280;50936;51.660;5.616;2023-05-17T11:47:07;102397.63;;;21.67;35.24
64544;BME280;50936;51.660;5.616;2023-05-17T11:49:36;102389.44;;;21.46;35.89
64544;BME280;50936;51.660;5.616;2023-05-17T11:52:06;102390.25;;;21.27;37.14
64544;BME280;50936;51.660;5.616;2023-05-17T11:54:34;102394.56;;;21.29;36.33
64544;BME280;50936;51.660;5.616;2023-05-17T11:57:03;102395.25;;;21.52;36.61
64544;BME280;50936;51.660;5.616;2023-05-17T11:59:38;102391.81;;;21.70;35.70
64544;BME280;50936;51.660;5.616;2023-05-17T12:02:06;102399.78;;;21.73;36.71
64544;BME280;50936;51.660;5.616;2023-05-17T12:04:37;102394.31;;;21.92;36.61
64544;BME280;50936;51.660;5.616;2023-05-17T12:07:08;102394.88;;;22.25;37.03
64544;BME280;50936;51.660;5.616;2023-05-17T12:09:37;102406.88;;;22.63;34.89
64544;BME280;50936;51.660;5.616;2023-05-17T12:12:06;102392.03;;;22.84;34.93
64544;BME280;50936;51.660;5.616;2023-05-17T12:14:34;102393.88;;;22.93;34.94
64544;BME280;50936;51.660;5.616;2023-05-17T12:17:02;102399.78;;;23.18;33.04
64544;BME280;50936;51.660;5.616;2023-05-17T12:19:34;102393.00;;;23.02;32.68
64544;BME280;50936;51.660;5.616;2023-05-17T12:22:08;102390.31;;;22.83;32.54
64544;BME280;50936;51.660;5.616;2023-05-17T12:24:41;102389.66;;;22.61;32.28
64544;BME280;50936;51.660;5.616;2023-05-17T12:27:09;102388.38;;;22.46;31.33
64544;BME280;50936;51.660;5.616;2023-05-17T12:29:37;102384.03;;;22.34;31.61
64544;BME280;50936;51.660;5.616;2023-05-17T12:32:06;102388.97;;;22.20;31.37
64544;BME280;50936;51.660;5.616;2023-05-17T12:34:36;102381.13;;;22.06;31.47
64544;BME280;50936;51.660;5.616;2023-05-17T12:37:05;102390.41;;;21.85;32.09
64544;BME280;50936;51.660;5.616;2023-05-17T12:39:36;102385.19;;;21.82;32.42
64544;BME280;50936;51.660;5.616;2023-05-17T12:42:04;102387.75;;;21.74;32.89
64544;BME280;50936;51.660;5.616;2023-05-17T12:44:32;102390.94;;;21.79;32.38
64544;BME280;50936;51.660;5.616;2023-05-17T12:47:01;102387.19;;;21.90;32.22
64544;BME280;50936;51.660;5.616;2023-05-17T12:49:28;102370.97;;;22.16;33.16
64544;BME280;50936;51.660;5.616;2023-05-17T12:51:55;102393.28;;;22.52;33.45
64544;BME280;50936;51.660;5.616;2023-05-17T12:54:26;102380.13;;;22.46;32.82
64544;BME280;50936;51.660;5.616;2023-05-17T12:56:54;102393.63;;;22.29;31.69
64544;BME280;50936;51.660;5.616;2023-05-17T12:59:22;102390.09;;;22.08;30.08
64544;BME280;50936;51.660;5.616;2023-05-17T13:01:55;102390.09;;;21.79;31.10
64544;BME280;50936;51.660;5.616;2023-05-17T13:04:30;102388.66;;;21.84;31.78
64544;BME280;50936;51.660;5.616;2023-05-17T13:07:02;102373.91;;;21.85;32.34